Albia, Iowa
Current Conditions -  °F | °C
As of 9:55 PM on Tuesday 21 Oct 2014 (Local Time) from KOOA Reporting Station
Clear Clear  
Wind Chill: 43°   Ceiling: Unl
Heat Index: 47°   Visibility: 10mi
Dew Point: 39°   Wind: 8mph
Humidity: 74%   Direction: 110°ESE
Pressure: 30.2"   Gusts: NA
Location:  41.03°N, 92.81°W
Report Text: KOOA 220255Z AUTO 11007KT 10SM CLR 08/04 A3020 RMK AO2 T00820038
Loading
Personal Weather Stations






























Interactive Weather Map
Tropical Storm Tracking
New forecast layout! Learn more

10-Day Weather Forecast

Advertisements
Track Severe Weather on mobile